Time;durP1;ratioP1;P1;durP2;ratioP2;P2;SDS_P1;SDS_P2;PMS_P1;PMS_P2;Temp;Humidity;BMP_temperature;BMP_pressure;BME280_temperature;BME280_humidity;BME280_pressure;Samples;Min_cycle;Max_cycle;Signal;HPM_P1;HPM_P2
2022/11/01 16:35:56;;;;;;;8.63;1.85;;;14.90;99.90;;;;;;4977881;27;4266715;-47
2022/11/01 16:38:37;;;;;;;7.88;1.98;;;14.80;99.90;;;;;;5109379;28;20451;-44
2022/11/01 16:41:19;;;;;;;11.20;2.17;;;14.80;99.90;;;;;;5109261;28;20097;-45
2022/11/01 16:43:52;;;;;;;10.80;1.75;;;14.70;99.90;;;;;;5108929;28;20048;-44
2022/11/01 16:46:22;;;;;;;10.23;1.67;;;14.60;99.90;;;;;;5104434;28;20040;-42
2022/11/01 16:48:49;;;;;;;6.55;2.08;;;14.60;99.90;;;;;;5106085;28;20050;-43
2022/11/01 16:51:15;;;;;;;10.43;2.38;;;14.50;99.90;;;;;;5107601;28;20035;-47
2022/11/01 16:53:42;;;;;;;10.02;1.95;;;14.50;99.90;;;;;;5101959;28;20105;-50
2022/11/01 16:56:16;;;;;;;7.55;1.80;;;14.40;99.90;;;;;;5104224;28;20872;-45
2022/11/01 16:58:44;;;;;;;8.05;1.60;;;14.30;99.90;;;;;;5108343;28;20079;-48
2022/11/01 17:01:22;;;;;;;9.55;1.90;;;14.30;99.90;;;;;;5096479;28;20035;-49
2022/11/01 17:03:51;;;;;;;7.55;1.70;;;14.20;99.90;;;;;;5095528;28;20036;-50
2022/11/01 17:06:21;;;;;;;11.73;1.70;;;14.20;99.90;;;;;;5088003;28;20044;-49
2022/11/01 17:08:51;;;;;;;5.35;1.67;;;14.10;99.90;;;;;;5088459;28;20532;-48
2022/11/01 17:11:18;;;;;;;11.55;1.90;;;14.10;99.90;;;;;;5088348;28;20040;-50
2022/11/01 17:13:45;;;;;;;6.90;1.60;;;14.00;99.90;;;;;;5088188;28;20123;-48
2022/11/01 17:16:23;;;;;;;5.32;1.60;;;14.00;99.90;;;;;;5097230;28;20031;-51
2022/11/01 17:18:56;;;;;;;11.30;2.03;;;13.90;99.90;;;;;;5106584;28;20070;-51
2022/11/01 17:21:25;;;;;;;5.25;1.63;;;13.90;99.90;;;;;;5107548;28;20489;-50
2022/11/01 17:23:53;;;;;;;;;;;13.90;99.90;;;;;;5090613;28;20468;-51
2022/11/01 17:26:22;;;;;;;9.63;2.03;;;13.80;99.90;;;;;;5086789;28;19916;-52
2022/11/01 17:28:51;;;;;;;6.18;1.23;;;13.80;99.90;;;;;;5088004;28;20040;-52
2022/11/01 17:31:19;;;;;;;10.32;2.10;;;13.80;99.90;;;;;;5087707;28;20478;-50
2022/11/01 17:33:47;;;;;;;9.32;1.80;;;13.80;99.90;;;;;;5087512;28;20114;-50
2022/11/01 17:36:18;;;;;;;10.40;1.60;;;13.80;99.90;;;;;;5077682;28;20096;-50
2022/11/01 17:38:49;;;;;;;10.73;2.88;;;13.70;99.90;;;;;;5082568;28;20063;-50
2022/11/01 17:41:20;;;;;;;8.90;2.03;;;13.70;99.90;;;;;;5094451;28;20036;-49
2022/11/01 17:43:47;;;;;;;7.45;1.77;;;13.70;99.90;;;;;;5094398;28;20047;-50
2022/11/01 17:46:19;;;;;;;12.68;1.50;;;13.70;99.90;;;;;;5093663;28;20036;-49
2022/11/01 17:48:47;;;;;;;8.45;1.60;;;13.60;99.90;;;;;;5094597;28;20036;-50
2022/11/01 17:51:16;;;;;;;7.60;1.40;;;13.60;99.90;;;;;;5094342;28;20059;-49
2022/11/01 17:53:45;;;;;;;6.72;1.63;;;13.60;99.90;;;;;;5094115;28;20044;-51
2022/11/01 17:56:13;;;;;;;13.10;1.80;;;13.60;99.90;;;;;;5094319;28;20076;-49
2022/11/01 17:58:41;;;;;;;5.60;1.25;;;13.60;99.90;;;;;;5079601;28;20498;-49
2022/11/01 18:01:12;;;;;;;8.88;1.90;;;13.70;99.90;;;;;;5074290;28;20433;-50
2022/11/01 18:03:38;;;;;;;10.23;1.70;;;13.60;99.90;;;;;;5078286;28;20370;-47
2022/11/01 18:06:05;;;;;;;7.35;1.88;;;13.60;99.90;;;;;;5091064;28;20466;-49
2022/11/01 18:08:34;;;;;;;5.90;1.70;;;13.70;99.90;;;;;;5093937;28;20046;-50
2022/11/01 18:11:28;;;;;;;6.45;1.40;;;13.70;99.90;;;;;;5092681;28;20036;-50
2022/11/01 18:14:41;;;;;;;5.07;1.38;;;13.70;99.90;;;;;;5093901;28;20055;-48
2022/11/01 18:17:23;;;;;;;9.20;1.42;;;13.70;99.90;;;;;;5011000;28;20427;-46
2022/11/01 18:19:59;;;;;;;9.68;1.67;;;13.70;99.90;;;;;;5011755;28;20033;-49
2022/11/01 18:22:34;;;;;;;8.30;1.52;;;13.60;99.90;;;;;;5011400;28;20041;-48
2022/11/01 18:25:31;;;;;;;6.93;1.63;;;13.60;99.90;;;;;;5011632;28;20499;-50
2022/11/01 18:28:02;;;;;;;10.02;1.70;;;13.60;99.90;;;;;;5011580;28;20053;-49
2022/11/01 18:30:30;;;;;;;11.60;2.53;;;13.50;99.90;;;;;;5011607;28;20475;-50
2022/11/01 18:33:06;;;;;;;;;;;13.50;99.90;;;;;;5010743;28;20049;-50
2022/11/01 18:35:50;;;;;;;7.28;1.98;;;13.40;99.90;;;;;;5011310;28;19925;-47
2022/11/01 18:38:22;;;;;;;8.05;1.50;;;13.40;99.90;;;;;;5011467;28;20116;-49
2022/11/01 18:41:03;;;;;;;10.13;2.50;;;13.40;99.90;;;;;;4994994;28;20053;-48
2022/11/01 18:43:33;;;;;;;11.10;2.42;;;13.30;99.90;;;;;;4994673;28;20050;-49
2022/11/01 18:46:02;;;;;;;10.15;2.05;;;13.30;99.90;;;;;;5011358;28;20044;-49
2022/11/01 18:48:30;;;;;;;10.30;2.17;;;13.30;99.90;;;;;;5010489;28;20049;-50
2022/11/01 18:51:04;;;;;;;9.30;2.22;;;13.30;99.90;;;;;;5011398;28;20037;-48
2022/11/01 18:53:34;;;;;;;10.77;1.92;;;13.40;99.90;;;;;;5054074;28;20089;-51
2022/11/01 18:56:12;;;;;;;;;;;13.40;99.90;;;;;;5093473;28;20512;-49
2022/11/01 18:58:40;;;;;;;11.45;1.95;;;13.40;99.90;;;;;;5093491;28;19920;-51
2022/11/01 19:01:24;;;;;;;10.70;1.70;;;13.40;99.90;;;;;;5093341;28;20040;-48
2022/11/01 19:04:00;;;;;;;10.65;1.73;;;13.40;99.90;;;;;;5091097;28;20111;-50
2022/11/01 19:06:26;;;;;;;6.53;1.85;;;13.40;99.90;;;;;;5092066;28;20036;-48
2022/11/01 19:08:57;;;;;;;9.15;1.60;;;13.40;99.90;;;;;;5092935;28;20405;-49
2022/11/01 19:11:28;;;;;;;7.95;1.80;;;13.40;99.90;;;;;;5092853;28;20032;-49
2022/11/01 19:13:58;;;;;;;16.02;2.38;;;13.40;99.90;;;;;;5092717;28;20044;-49
2022/11/01 19:16:24;;;;;;;9.25;2.10;;;13.40;99.90;;;;;;5091333;28;20048;-46
2022/11/01 19:18:51;;;;;;;8.63;1.55;;;13.40;99.90;;;;;;5090310;28;20097;-48
2022/11/01 19:21:21;;;;;;;10.55;1.70;;;13.50;99.90;;;;;;5090988;28;20043;-49
2022/11/01 19:23:49;;;;;;;11.45;1.85;;;13.50;99.90;;;;;;5092469;28;20046;-50
2022/11/01 19:26:24;;;;;;;5.60;1.60;;;13.50;99.90;;;;;;5092607;28;20050;-51
2022/11/01 19:28:51;;;;;;;8.70;2.05;;;13.50;99.90;;;;;;5092464;28;20032;-50
2022/11/01 19:31:31;;;;;;;10.07;1.73;;;13.40;99.90;;;;;;5092296;28;20040;-48
2022/11/01 19:34:02;;;;;;;6.72;1.85;;;13.40;99.90;;;;;;5092249;28;20103;-49
2022/11/01 19:36:47;;;;;;;8.20;1.90;;;13.40;99.90;;;;;;5092533;28;20051;-51
2022/11/01 19:39:24;;;;;;;8.00;1.60;;;13.40;99.90;;;;;;5092285;28;20036;-49
2022/11/01 19:41:58;;;;;;;7.15;1.58;;;13.40;99.90;;;;;;5092188;28;20131;-52
2022/11/01 19:44:26;;;;;;;10.13;1.80;;;13.40;99.90;;;;;;5092251;28;20043;-52
2022/11/01 19:47:11;;;;;;;3.65;1.20;;;13.40;99.90;;;;;;5090618;28;20044;-51
2022/11/01 19:49:41;;;;;;;9.68;1.40;;;13.40;99.90;;;;;;5089483;28;20028;-50
2022/11/01 19:52:07;;;;;;;10.70;1.67;;;13.40;99.90;;;;;;5091106;28;20044;-50
2022/11/01 19:54:35;;;;;;;9.65;1.83;;;13.50;99.90;;;;;;5091075;28;20043;-48
2022/11/01 19:57:27;;;;;;;6.90;1.85;;;13.60;99.90;;;;;;5091479;28;20032;-52
2022/11/01 19:59:56;;;;;;;9.40;1.83;;;13.60;99.90;;;;;;5091978;28;20493;-50
2022/11/01 20:02:22;;;;;;;14.75;2.65;;;13.70;99.90;;;;;;5091974;28;20129;-51
2022/11/01 20:04:55;;;;;;;8.98;2.15;;;13.70;99.90;;;;;;5092244;28;20157;-52
2022/11/01 20:07:25;;;;;;;8.52;1.55;;;13.70;99.90;;;;;;5092087;28;20384;-51
2022/11/01 20:09:52;;;;;;;11.93;1.77;;;13.80;99.90;;;;;;5091843;28;20115;-51
2022/11/01 20:12:18;;;;;;;10.90;1.95;;;13.80;99.90;;;;;;5091965;28;20071;-50
2022/11/01 20:14:44;;;;;;;11.73;1.70;;;13.80;99.90;;;;;;5091603;28;20452;-51
2022/11/01 20:17:09;;;;;;;8.77;1.85;;;13.80;99.90;;;;;;5090419;28;20032;-51
2022/11/01 20:19:35;;;;;;;8.98;1.92;;;13.90;99.90;;;;;;5089875;28;20044;-51
2022/11/01 20:22:01;;;;;;;9.45;1.92;;;13.80;99.90;;;;;;5091000;28;20163;-51
2022/11/01 20:24:27;;;;;;;9.38;1.90;;;13.90;99.90;;;;;;5091732;28;20043;-49
2022/11/01 20:26:53;;;;;;;8.82;1.70;;;13.90;99.90;;;;;;5091805;28;20036;-48
2022/11/01 20:29:19;;;;;;;9.20;2.20;;;13.90;99.90;;;;;;5091686;28;20093;-50
2022/11/01 20:31:46;;;;;;;8.70;1.75;;;13.90;99.90;;;;;;5090357;28;20487;-50
2022/11/01 20:34:12;;;;;;;7.97;1.60;;;13.90;99.90;;;;;;5091987;28;20501;-50
2022/11/01 20:36:38;;;;;;;12.52;1.70;;;13.90;99.90;;;;;;5092217;28;20044;-51
2022/11/01 20:39:05;;;;;;;5.25;2.30;;;13.90;99.90;;;;;;5091549;28;20043;-50
2022/11/01 20:41:31;;;;;;;7.10;2.53;;;13.90;99.90;;;;;;5091692;28;20037;-50
2022/11/01 20:43:56;;;;;;;5.63;1.15;;;13.90;99.90;;;;;;5089441;28;20040;-52
2022/11/01 20:46:22;;;;;;;7.85;1.70;;;13.90;99.90;;;;;;5091004;28;20039;-52
2022/11/01 20:48:48;;;;;;;9.85;1.55;;;13.90;99.90;;;;;;5089718;28;20035;-52
2022/11/01 20:51:14;;;;;;;11.68;2.03;;;13.90;99.90;;;;;;5090018;28;20040;-49
2022/11/01 20:53:40;;;;;;;12.02;1.98;;;13.90;99.90;;;;;;5091552;28;20643;-51
2022/11/01 20:56:06;;;;;;;8.68;1.80;;;13.90;99.90;;;;;;5072714;28;20083;-51
2022/11/01 20:58:39;;;;;;;12.18;2.28;;;14.00;99.90;;;;;;5091449;28;20054;-49
2022/11/01 21:01:15;;;;;;;9.88;1.77;;;14.00;99.90;;;;;;5091464;28;20050;-50
2022/11/01 21:03:43;;;;;;;12.20;2.53;;;14.00;99.90;;;;;;5091494;28;20044;-47
2022/11/01 21:06:12;;;;;;;6.82;1.52;;;14.00;99.90;;;;;;5091442;28;20043;-49
2022/11/01 21:08:38;;;;;;;6.53;1.10;;;14.00;99.90;;;;;;5091493;28;20093;-49
2022/11/01 21:11:13;;;;;;;7.95;1.33;;;13.90;99.90;;;;;;5093123;28;20047;-50
2022/11/01 21:13:44;;;;;;;6.85;1.98;;;13.90;99.90;;;;;;5095152;28;20047;-51
2022/11/01 21:16:39;;;;;;;6.45;1.55;;;13.90;99.90;;;;;;5092220;28;20060;-49
2022/11/01 21:19:18;;;;;;;12.50;1.92;;;13.90;99.90;;;;;;5011042;28;20042;-51
2022/11/01 21:21:47;;;;;;;4.88;1.38;;;13.90;99.90;;;;;;5010783;28;20038;-48
2022/11/01 21:24:26;;;;;;;9.20;1.80;;;13.90;99.90;;;;;;5010768;28;20050;-46
2022/11/01 21:26:59;;;;;;;9.95;1.80;;;13.80;99.90;;;;;;4977798;28;20038;-51
2022/11/01 21:29:28;;;;;;;8.13;1.67;;;13.80;99.90;;;;;;4995362;28;20049;-48
2022/11/01 21:31:55;;;;;;;11.25;2.15;;;13.90;99.90;;;;;;5012817;28;20048;-47
2022/11/01 21:34:28;;;;;;;10.43;1.70;;;13.90;99.90;;;;;;5012198;28;20064;-51
2022/11/01 21:36:57;;;;;;;11.25;2.17;;;13.90;99.90;;;;;;5012590;28;20045;-49
2022/11/01 21:39:26;;;;;;;7.13;1.90;;;13.80;99.90;;;;;;5012555;28;20400;-50
2022/11/01 21:41:56;;;;;;;;;;;13.80;99.90;;;;;;5012993;28;20046;-49
2022/11/01 21:44:41;;;;;;;11.27;2.15;;;13.80;99.90;;;;;;5012398;28;20054;-49
2022/11/01 21:47:13;;;;;;;11.15;2.75;;;13.70;99.90;;;;;;5010935;28;20141;-48
2022/11/01 21:49:40;;;;;;;13.52;2.03;;;13.70;99.90;;;;;;5008420;28;20038;-48
2022/11/01 21:52:10;;;;;;;9.40;2.10;;;13.70;99.90;;;;;;5011452;28;20046;-47
2022/11/01 21:54:40;;;;;;;10.98;2.38;;;13.70;99.90;;;;;;5020845;28;20110;-51
2022/11/01 21:57:10;;;;;;;8.43;1.77;;;13.70;99.90;;;;;;5074601;28;20040;-48
2022/11/01 21:59:36;;;;;;;8.25;1.95;;;13.60;99.90;;;;;;5072788;28;20491;-48
2022/11/01 22:02:07;;;;;;;8.48;1.80;;;13.60;99.90;;;;;;5074308;28;20063;-49
2022/11/01 22:04:38;;;;;;;12.10;2.03;;;13.60;99.90;;;;;;5073698;28;20037;-50
2022/11/01 22:07:09;;;;;;;13.82;2.45;;;13.70;99.90;;;;;;5072651;28;20391;-49
2022/11/01 22:09:38;;;;;;;12.55;2.28;;;13.70;99.90;;;;;;5073812;28;20052;-48
2022/11/01 22:12:07;;;;;;;14.68;2.50;;;13.60;99.90;;;;;;5073367;28;20071;-47
2022/11/01 22:14:34;;;;;;;10.68;1.92;;;13.70;99.90;;;;;;5073833;28;20051;-50
2022/11/01 22:17:02;;;;;;;13.73;1.92;;;13.60;99.90;;;;;;5084813;28;20119;-52
2022/11/01 22:19:32;;;;;;;7.88;2.10;;;13.60;99.90;;;;;;5091397;28;20040;-47
2022/11/01 22:21:59;;;;;;;8.85;2.10;;;13.70;99.90;;;;;;5092221;28;20088;-49
2022/11/01 22:24:29;;;;;;;13.07;2.28;;;13.70;99.90;;;;;;5094220;28;20052;-48
2022/11/01 22:27:00;;;;;;;14.02;3.25;;;13.60;99.90;;;;;;5093762;28;20093;-46
2022/11/01 22:29:31;;;;;;;12.93;1.98;;;13.60;99.90;;;;;;5093973;28;20040;-51
2022/11/01 22:31:58;;;;;;;13.85;2.20;;;13.60;99.90;;;;;;5093469;28;20423;-51
2022/11/01 22:34:25;;;;;;;14.43;2.92;;;13.60;99.90;;;;;;5093382;28;20040;-50
2022/11/01 22:36:55;;;;;;;9.95;1.77;;;13.50;99.90;;;;;;5093605;28;20505;-50
2022/11/01 22:39:27;;;;;;;18.30;2.75;;;13.50;99.90;;;;;;5093474;28;20040;-52
2022/11/01 22:41:56;;;;;;;13.10;2.80;;;13.60;99.90;;;;;;5093349;28;20032;-47
2022/11/01 22:44:30;;;;;;;8.93;1.90;;;13.50;99.90;;;;;;5074932;28;20048;-48
2022/11/01 22:46:59;;;;;;;7.53;1.98;;;13.50;99.90;;;;;;5092052;28;20036;-47
2022/11/01 22:49:31;;;;;;;11.85;1.85;;;13.50;99.90;;;;;;5091507;28;20036;-50
2022/11/01 22:52:25;;;;;;;9.95;2.13;;;13.50;99.90;;;;;;5091858;28;20058;-48
2022/11/01 22:55:03;;;;;;;10.48;2.05;;;13.50;99.90;;;;;;5011010;28;20061;-48
2022/11/01 22:57:35;;;;;;;8.90;1.90;;;13.50;99.90;;;;;;5010860;28;20057;-48
2022/11/01 23:00:23;;;;;;;10.90;1.83;;;13.50;99.90;;;;;;5011016;28;20168;-49
2022/11/01 23:02:50;;;;;;;9.50;2.13;;;13.50;99.90;;;;;;5011065;28;20042;-48
2022/11/01 23:05:23;;;;;;;13.23;3.05;;;13.50;99.90;;;;;;5010670;28;20057;-48
2022/11/01 23:07:52;;;;;;;10.55;1.88;;;13.50;99.90;;;;;;5010962;28;20077;-50
2022/11/01 23:10:24;;;;;;;5.85;1.50;;;13.40;99.90;;;;;;5011105;28;20559;-48
2022/11/01 23:16:17;;;;;;;16.08;3.22;;;13.40;99.90;;;;;;5010530;28;20141;-47
2022/11/01 23:18:45;;;;;;;8.95;1.83;;;13.40;99.90;;;;;;4991846;28;20041;-49
2022/11/01 23:21:18;;;;;;;6.80;1.80;;;13.40;99.90;;;;;;4991272;28;20207;-50
2022/11/01 23:23:46;;;;;;;8.55;2.00;;;13.30;99.90;;;;;;5010149;28;20045;-47
2022/11/01 23:26:17;;;;;;;4.97;1.33;;;13.30;99.90;;;;;;5010497;28;20393;-49
2022/11/01 23:28:50;;;;;;;13.95;2.28;;;13.30;99.90;;;;;;5010256;28;20115;-49
2022/11/01 23:31:18;;;;;;;7.63;1.75;;;13.20;99.90;;;;;;5033008;28;20052;-48
2022/11/01 23:33:46;;;;;;;12.13;1.77;;;13.30;99.90;;;;;;5092038;28;20105;-47
2022/11/01 23:36:36;;;;;;;7.45;1.70;;;13.20;99.90;;;;;;5092269;28;20619;-49
2022/11/01 23:39:11;;;;;;;8.43;2.05;;;13.20;99.90;;;;;;5092067;28;20047;-46
2022/11/01 23:41:46;;;;;;;12.20;2.15;;;13.20;99.90;;;;;;5092255;28;20035;-48
2022/11/01 23:44:25;;;;;;;6.78;1.83;;;13.20;99.90;;;;;;5092234;28;20044;-47
2022/11/01 23:46:58;;;;;;;10.25;2.10;;;13.10;99.90;;;;;;5092043;28;20389;-50
2022/11/01 23:49:29;;;;;;;10.65;2.63;;;13.10;99.90;;;;;;5092109;28;20501;-50
2022/11/01 23:51:57;;;;;;;10.68;2.28;;;13.00;99.90;;;;;;5092408;28;20040;-48
2022/11/01 23:54:40;;;;;;;8.10;1.88;;;13.00;99.90;;;;;;5092233;28;20040;-50
2022/11/01 23:57:18;;;;;;;11.70;2.65;;;12.90;99.90;;;;;;5090852;28;20051;-50
2022/11/01 23:59:49;;;;;;;10.60;1.70;;;12.80;99.90;;;;;;5092057;28;20040;-47
